Terminal Aerodrome Forecast
Issued by NWS

Home | Current Version | Previous Version | Graphics & Text | Print | Product List | Glossary On
Versions: 1 2 3 4 5 6 7 8 9 10 11 12 13
720
FTUS43 KGRB 081137
TAFMTW
TAF
KMTW 081137Z 0812/0912 28006KT P6SM -RASN SCT015 OVC035
      TEMPO 0812/0813 4SM -SN BKN015
     FM081300 29009KT P6SM -SN SCT015 OVC040
      TEMPO 0813/0817 4SM -SN BKN015
     FM081700 30010G18KT 4SM -SN BR OVC015
     FM090000 34012KT 5SM -SN BR OVC011
     FM090600 32014G21KT 6SM -SN BKN015=

USA.gov is the U.S. government's official web portal to all federal, state and local government web resources and services.